createdAt,value
2019-03-15T00:01:16.160Z,0.73
2019-03-15T00:03:47.914Z,0.76
2019-03-15T00:06:19.591Z,0.78
2019-03-15T00:08:51.274Z,0.81
2019-03-15T00:11:23.099Z,0.82
2019-03-15T00:13:54.848Z,0.82
2019-03-15T00:16:26.525Z,0.79
2019-03-15T00:18:59.200Z,0.76
2019-03-15T00:21:30.800Z,0.73
2019-03-15T00:24:02.622Z,0.69
2019-03-15T00:26:34.268Z,0.66
2019-03-15T00:29:06.043Z,0.63
2019-03-15T00:31:37.905Z,0.61
2019-03-15T00:34:09.560Z,0.60
2019-03-15T00:36:41.429Z,0.58
2019-03-15T00:39:13.072Z,0.55
2019-03-15T00:41:44.644Z,0.50
2019-03-15T00:44:16.481Z,0.45
2019-03-15T00:46:47.953Z,0.42
2019-03-15T00:49:19.338Z,0.37
2019-03-15T00:51:51.701Z,0.33
2019-03-15T00:54:23.094Z,0.30
2019-03-15T00:56:54.378Z,0.28
2019-03-15T00:59:25.937Z,0.25
2019-03-15T01:01:57.287Z,0.19
2019-03-15T01:04:28.941Z,0.16
2019-03-15T01:07:00.804Z,0.14
2019-03-15T01:09:32.357Z,0.16
2019-03-15T01:12:03.821Z,0.21
2019-03-15T01:14:35.778Z,0.24
2019-03-15T01:17:07.128Z,0.28
2019-03-15T01:19:39.707Z,0.34
2019-03-15T01:22:11.161Z,0.40
2019-03-15T01:24:42.917Z,0.48
2019-03-15T01:27:14.667Z,0.55
2019-03-15T01:29:47.347Z,0.61
2019-03-15T01:32:18.911Z,0.68
2019-03-15T01:34:50.511Z,0.73
2019-03-15T01:37:22.333Z,0.80
2019-03-15T01:39:53.867Z,0.84
2019-03-15T01:42:25.757Z,0.85
2019-03-15T01:44:57.409Z,0.88
2019-03-15T01:47:29.273Z,0.90
2019-03-15T01:50:00.833Z,0.95
2019-03-15T01:52:32.360Z,1.00
2019-03-15T01:55:05.770Z,1.09
2019-03-15T01:57:37.341Z,1.13
2019-03-15T02:00:10.505Z,1.19
2019-03-15T02:02:42.293Z,1.19
2019-03-15T02:05:13.949Z,1.19
2019-03-15T02:07:45.795Z,1.14
2019-03-15T02:10:17.469Z,1.12
2019-03-15T02:12:48.918Z,1.14
2019-03-15T02:15:20.572Z,1.17
2019-03-15T02:17:52.705Z,1.19
2019-03-15T02:20:24.377Z,1.18
2019-03-15T02:22:55.845Z,1.14
2019-03-15T02:25:27.561Z,1.12
2019-03-15T02:27:59.574Z,1.10
2019-03-15T02:30:31.213Z,1.04
2019-03-15T02:33:02.703Z,1.00
2019-03-15T02:35:34.338Z,0.95
2019-03-15T02:38:05.916Z,0.91
2019-03-15T02:40:37.444Z,0.86
2019-03-15T02:43:10.228Z,0.84
2019-03-15T02:45:41.890Z,0.78
2019-03-15T02:48:13.847Z,0.76
2019-03-15T02:50:45.445Z,0.73
2019-03-15T02:53:17.267Z,0.75
2019-03-15T02:55:49.031Z,0.74
2019-03-15T02:58:20.593Z,0.75
2019-03-15T03:00:52.327Z,0.75
2019-03-15T03:03:23.894Z,0.78
2019-03-15T03:05:55.450Z,0.81
2019-03-15T03:08:27.312Z,0.82
2019-03-15T03:10:58.972Z,0.88
2019-03-15T03:13:30.646Z,0.90
2019-03-15T03:16:03.503Z,0.92
2019-03-15T03:18:35.387Z,0.91
2019-03-15T03:21:06.974Z,0.91
2019-03-15T03:23:38.706Z,0.92
2019-03-15T03:26:12.796Z,0.89
2019-03-15T03:28:44.887Z,0.87
2019-03-15T03:31:16.483Z,0.85
2019-03-15T03:33:47.984Z,0.81
2019-03-15T03:36:19.751Z,0.78
2019-03-15T03:38:51.389Z,0.74
2019-03-15T03:41:23.233Z,0.71
2019-03-15T03:43:54.925Z,0.66
2019-03-15T03:46:27.359Z,0.64
2019-03-15T03:48:58.834Z,0.64
2019-03-15T03:51:30.394Z,0.62
2019-03-15T03:54:01.946Z,0.59
2019-03-15T03:56:33.821Z,0.54
2019-03-15T03:59:05.484Z,0.53
2019-03-15T04:01:37.340Z,0.51
2019-03-15T04:04:08.803Z,0.46
2019-03-15T04:06:40.459Z,0.43
2019-03-15T04:09:12.006Z,0.40
2019-03-15T04:11:54.913Z,0.36
2019-03-15T04:14:16.676Z,0.32
2019-03-15T04:16:48.308Z,0.27
2019-03-15T04:19:20.173Z,0.24
2019-03-15T04:21:51.811Z,0.21
2019-03-15T04:24:23.688Z,0.18
2019-03-15T04:26:55.335Z,0.17
2019-03-15T04:29:27.218Z,0.12
2019-03-15T04:31:58.863Z,0.08
2019-03-15T04:34:30.425Z,0.05
2019-03-15T04:37:02.261Z,0.05
2019-03-15T04:39:33.818Z,0.02
2019-03-15T04:42:05.478Z,0.02
2019-03-15T04:44:37.259Z,0.01
2019-03-15T04:47:10.228Z,0.01
2019-03-15T04:49:41.679Z,0.06
2019-03-15T04:52:13.542Z,0.12
2019-03-15T04:54:45.320Z,0.20
2019-03-15T04:57:16.954Z,0.32
2019-03-15T04:59:48.630Z,0.45
2019-03-15T05:02:20.679Z,0.58
2019-03-15T05:04:52.248Z,0.73
2019-03-15T05:07:23.911Z,0.83
2019-03-15T05:09:55.241Z,0.96
2019-03-15T05:12:27.055Z,1.05
2019-03-15T05:14:58.884Z,1.18
2019-03-15T05:17:30.519Z,1.29
2019-03-15T05:20:02.397Z,1.43
2019-03-15T05:22:34.271Z,1.60
2019-03-15T05:25:07.177Z,1.69
2019-03-15T05:27:38.584Z,1.84
2019-03-15T05:30:11.483Z,1.92
2019-03-15T05:32:42.961Z,2.02
2019-03-15T05:35:14.698Z,2.08
2019-03-15T05:37:46.351Z,2.17
2019-03-15T05:40:17.956Z,2.23
2019-03-15T05:42:49.463Z,2.32
2019-03-15T05:45:21.114Z,2.46
2019-03-15T05:47:52.752Z,2.57
2019-03-15T05:50:24.640Z,2.67
2019-03-15T05:52:56.233Z,2.79
2019-03-15T05:55:27.939Z,2.97
2019-03-15T05:57:59.722Z,3.06
2019-03-15T06:00:31.679Z,3.21
2019-03-15T06:03:06.324Z,3.28
2019-03-15T06:05:38.291Z,3.37
2019-03-15T06:08:10.123Z,3.46
2019-03-15T06:10:42.083Z,3.63
2019-03-15T06:13:13.662Z,3.77
2019-03-15T06:15:46.171Z,3.92
2019-03-15T06:18:17.673Z,3.99
2019-03-15T06:20:49.324Z,3.99
2019-03-15T06:23:20.881Z,4.12
2019-03-15T06:25:52.665Z,4.28
2019-03-15T06:28:24.032Z,4.47
2019-03-15T06:30:55.428Z,4.57
2019-03-15T06:33:28.717Z,4.75
2019-03-15T06:36:00.102Z,4.80
2019-03-15T06:38:33.516Z,4.93
2019-03-15T06:41:05.063Z,4.91
2019-03-15T06:43:36.606Z,4.97
2019-03-15T06:46:08.367Z,4.99
2019-03-15T06:48:40.008Z,5.04
2019-03-15T06:51:11.683Z,5.09
2019-03-15T06:53:43.440Z,5.06
2019-03-15T06:56:14.998Z,5.18
2019-03-15T06:58:46.907Z,5.28
2019-03-15T07:01:18.691Z,5.38
2019-03-15T07:03:50.561Z,5.45
2019-03-15T07:06:22.059Z,5.40
2019-03-15T07:08:53.689Z,5.45
2019-03-15T07:11:25.457Z,5.54
2019-03-15T07:13:57.117Z,5.57
2019-03-15T07:16:29.546Z,5.52
2019-03-15T07:19:00.928Z,5.52
2019-03-15T07:21:32.574Z,5.75
2019-03-15T07:24:04.126Z,5.92
2019-03-15T07:26:36.025Z,6.02
2019-03-15T07:29:07.568Z,6.01
2019-03-15T07:31:39.224Z,6.06
2019-03-15T07:34:13.641Z,6.12
2019-03-15T07:36:44.074Z,6.01
2019-03-15T07:39:16.122Z,6.04
2019-03-15T07:41:47.590Z,6.05
2019-03-15T07:44:19.275Z,6.29
2019-03-15T07:46:51.293Z,6.44
2019-03-15T07:49:23.268Z,6.44
2019-03-15T07:51:54.841Z,6.53
2019-03-15T07:54:37.394Z,6.69
2019-03-15T07:56:59.570Z,6.73
2019-03-15T07:59:31.232Z,6.77
2019-03-15T08:02:02.696Z,6.91
2019-03-15T08:04:35.963Z,6.95
2019-03-15T08:07:07.550Z,6.86
2019-03-15T08:09:39.084Z,6.92
2019-03-15T08:12:10.537Z,7.10
2019-03-15T08:14:42.009Z,7.22
2019-03-15T08:17:13.664Z,7.19
2019-03-15T08:19:45.532Z,7.22
2019-03-15T08:22:17.295Z,7.22
2019-03-15T08:24:51.700Z,7.22
2019-03-15T08:27:21.770Z,7.25
2019-03-15T08:29:53.472Z,7.38
2019-03-15T08:32:25.362Z,7.65
2019-03-15T08:34:57.008Z,7.65
2019-03-15T08:37:30.100Z,7.75
2019-03-15T08:40:01.888Z,7.70
2019-03-15T08:42:34.762Z,7.62
2019-03-15T08:45:09.897Z,7.57
2019-03-15T08:47:41.221Z,7.48
2019-03-15T08:50:15.805Z,7.53
2019-03-15T08:52:47.342Z,7.39
2019-03-15T08:55:19.080Z,7.52
2019-03-15T08:57:50.612Z,7.76
2019-03-15T09:00:22.497Z,7.97
2019-03-15T09:02:54.153Z,8.26
2019-03-15T09:05:25.709Z,8.43
2019-03-15T09:07:57.158Z,8.69
2019-03-15T09:10:28.925Z,8.71
2019-03-15T09:13:00.577Z,8.81
2019-03-15T09:15:34.099Z,8.96
2019-03-15T09:18:05.530Z,8.91
2019-03-15T09:20:36.974Z,9.06
2019-03-15T09:23:08.830Z,8.97
2019-03-15T09:25:40.503Z,8.88
2019-03-15T09:28:11.966Z,9.08
2019-03-15T09:30:43.805Z,8.99
2019-03-15T09:33:15.582Z,8.95
2019-03-15T09:35:47.226Z,8.85
2019-03-15T09:38:19.093Z,8.92
2019-03-15T09:40:50.892Z,8.91
2019-03-15T09:43:22.526Z,8.88
2019-03-15T09:45:55.627Z,8.96
2019-03-15T09:48:27.284Z,8.86
2019-03-15T09:50:59.030Z,8.83
2019-03-15T09:53:30.774Z,8.95
2019-03-15T09:56:02.449Z,9.01
2019-03-15T09:58:34.186Z,9.07
2019-03-15T10:01:06.342Z,9.08
2019-03-15T10:03:37.832Z,9.26
2019-03-15T10:06:14.882Z,9.34
2019-03-15T10:08:42.889Z,9.42
2019-03-15T10:11:14.529Z,9.49
2019-03-15T10:13:46.407Z,9.35
2019-03-15T10:16:18.045Z,9.37
2019-03-15T10:18:50.624Z,9.18
2019-03-15T10:21:22.178Z,9.19
2019-03-15T10:23:53.938Z,9.17
2019-03-15T10:26:28.072Z,9.14
2019-03-15T10:28:59.622Z,9.11
2019-03-15T10:31:30.960Z,9.13
2019-03-15T10:34:05.690Z,9.19
2019-03-15T10:36:35.813Z,9.36
2019-03-15T10:39:07.877Z,9.11
2019-03-15T10:41:39.224Z,9.16
2019-03-15T10:44:11.211Z,9.35
2019-03-15T10:46:42.763Z,9.48
2019-03-15T10:49:14.816Z,9.61
2019-03-15T10:51:46.491Z,9.57
2019-03-15T10:54:18.334Z,9.45
2019-03-15T10:56:49.685Z,9.44
2019-03-15T10:59:21.258Z,9.40
2019-03-15T11:01:56.248Z,9.48
2019-03-15T11:04:28.042Z,9.41
2019-03-15T11:06:59.490Z,9.28
2019-03-15T11:09:31.368Z,9.20
2019-03-15T11:12:04.054Z,9.10
2019-03-15T11:14:35.812Z,9.05
2019-03-15T11:17:08.783Z,8.94
2019-03-15T11:19:40.660Z,9.08
2019-03-15T11:22:12.095Z,9.12
2019-03-15T11:24:44.179Z,9.02
2019-03-15T11:27:15.736Z,9.11
2019-03-15T11:29:47.288Z,9.31
2019-03-15T11:32:19.093Z,9.35
2019-03-15T11:34:50.909Z,9.24
2019-03-15T11:37:22.553Z,9.20
2019-03-15T11:39:54.208Z,9.27
2019-03-15T11:42:25.677Z,9.28
2019-03-15T11:44:57.558Z,9.27
2019-03-15T11:47:29.312Z,9.19
2019-03-15T11:50:00.955Z,9.25
2019-03-15T11:52:32.614Z,9.13
2019-03-15T11:55:05.083Z,8.96
2019-03-15T11:57:36.665Z,9.00
2019-03-15T12:00:16.453Z,8.96
2019-03-15T12:02:47.819Z,8.92
2019-03-15T12:05:19.495Z,8.82
2019-03-15T12:07:51.278Z,8.71
2019-03-15T12:10:23.226Z,8.74
2019-03-15T12:12:54.866Z,8.79
2019-03-15T12:15:26.829Z,8.85
2019-03-15T12:17:58.280Z,8.97
2019-03-15T12:20:31.283Z,9.02
2019-03-15T12:23:03.025Z,9.25
2019-03-15T12:25:34.709Z,9.40
2019-03-15T12:28:06.044Z,9.48
2019-03-15T12:30:37.811Z,9.49
2019-03-15T12:33:09.469Z,9.49
2019-03-15T12:35:41.310Z,9.48
2019-03-15T12:38:12.970Z,9.54
2019-03-15T12:40:44.423Z,9.45
2019-03-15T12:43:16.200Z,9.44
2019-03-15T12:45:47.856Z,9.45
2019-03-15T12:48:19.186Z,9.45
2019-03-15T12:50:50.964Z,9.43
2019-03-15T12:53:22.418Z,9.22
2019-03-15T12:55:56.230Z,9.06
2019-03-15T12:58:29.972Z,8.69
2019-03-15T13:01:01.285Z,8.50
2019-03-15T13:03:32.695Z,8.26
2019-03-15T13:06:04.371Z,8.17
2019-03-15T13:08:36.242Z,8.18
2019-03-15T13:11:08.115Z,8.26
2019-03-15T13:13:39.575Z,8.10
2019-03-15T13:16:11.432Z,8.08
2019-03-15T13:18:43.090Z,8.11
2019-03-15T13:21:14.951Z,8.11
2019-03-15T13:23:46.610Z,8.19
2019-03-15T13:26:18.250Z,8.19
2019-03-15T13:28:50.128Z,8.36
2019-03-15T13:31:21.884Z,8.44
2019-03-15T13:33:53.732Z,8.42
2019-03-15T13:36:26.215Z,8.40
2019-03-15T13:38:57.970Z,8.22
2019-03-15T13:41:29.539Z,8.11
2019-03-15T13:44:01.398Z,8.09
2019-03-15T13:46:33.054Z,7.91
2019-03-15T13:49:04.593Z,7.80
2019-03-15T13:51:36.479Z,7.71
2019-03-15T13:54:08.234Z,7.58
2019-03-15T13:56:39.787Z,7.52
2019-03-15T13:59:11.549Z,7.48
2019-03-15T14:01:43.415Z,7.40
2019-03-15T14:04:15.259Z,7.52
2019-03-15T14:06:47.072Z,7.49
2019-03-15T14:09:18.938Z,7.40
2019-03-15T14:11:50.741Z,7.17
2019-03-15T14:14:22.312Z,7.05
2019-03-15T14:16:54.076Z,7.03
2019-03-15T14:19:25.707Z,7.01
2019-03-15T14:21:58.633Z,6.86
2019-03-15T14:24:30.473Z,6.86
2019-03-15T14:27:02.117Z,6.78
2019-03-15T14:29:33.987Z,6.71
2019-03-15T14:32:06.928Z,6.66
2019-03-15T14:34:38.641Z,6.65
2019-03-15T14:37:10.855Z,6.51
2019-03-15T14:39:42.578Z,6.52
2019-03-15T14:42:14.392Z,6.48
2019-03-15T14:44:46.142Z,6.46
2019-03-15T14:47:17.721Z,6.43
2019-03-15T14:49:49.219Z,6.42
2019-03-15T14:52:21.035Z,6.37
2019-03-15T14:54:52.900Z,6.35
2019-03-15T14:57:24.573Z,6.29
2019-03-15T14:59:56.538Z,6.23
2019-03-15T15:02:28.295Z,6.17
2019-03-15T15:04:59.746Z,6.13
2019-03-15T15:07:31.494Z,6.05
2019-03-15T15:10:03.379Z,6.01
2019-03-15T15:12:34.858Z,5.94
2019-03-15T15:15:11.704Z,5.88
2019-03-15T15:17:43.463Z,5.81
2019-03-15T15:20:15.075Z,5.73
2019-03-15T15:22:46.981Z,5.65
2019-03-15T15:25:18.871Z,5.55
2019-03-15T15:28:03.487Z,5.45
2019-03-15T15:30:23.384Z,5.31
2019-03-15T15:32:55.042Z,5.25
2019-03-15T15:35:26.705Z,5.16
2019-03-15T15:37:58.552Z,5.06
2019-03-15T15:40:30.221Z,4.95
2019-03-15T15:43:01.981Z,4.86
2019-03-15T15:45:33.737Z,4.87
2019-03-15T15:48:05.598Z,4.81
2019-03-15T15:50:37.241Z,4.75
2019-03-15T15:53:11.142Z,4.66
2019-03-15T15:55:42.191Z,4.61
2019-03-15T15:58:18.184Z,4.56
2019-03-15T16:00:47.882Z,4.54
2019-03-15T16:03:19.420Z,4.48
2019-03-15T16:05:50.999Z,4.44
2019-03-15T16:08:22.839Z,4.43
2019-03-15T16:10:54.828Z,4.38
2019-03-15T16:13:26.581Z,4.37
2019-03-15T16:15:58.244Z,4.34
2019-03-15T16:18:30.040Z,4.26
2019-03-15T16:21:01.643Z,4.28
2019-03-15T16:23:33.217Z,4.29
2019-03-15T16:26:05.082Z,4.22
2019-03-15T16:28:36.720Z,4.19
2019-03-15T16:31:08.685Z,4.19
2019-03-15T16:33:40.362Z,4.17
2019-03-15T16:36:11.915Z,4.13
2019-03-15T16:38:43.775Z,4.13
2019-03-15T16:41:15.433Z,4.08
2019-03-15T16:43:46.988Z,4.06
2019-03-15T16:46:18.834Z,4.06
2019-03-15T16:48:51.512Z,4.06
2019-03-15T16:51:24.088Z,4.03
2019-03-15T16:53:55.647Z,4.00
2019-03-15T16:56:27.525Z,3.96
2019-03-15T16:58:58.999Z,3.93
2019-03-15T17:01:30.736Z,3.94
2019-03-15T17:04:02.395Z,3.92
2019-03-15T17:06:33.968Z,3.92
2019-03-15T17:09:07.129Z,3.91
2019-03-15T17:11:38.798Z,3.89
2019-03-15T17:14:10.570Z,3.89
2019-03-15T17:16:42.425Z,3.90
2019-03-15T17:19:13.876Z,3.90
2019-03-15T17:21:45.841Z,3.87
2019-03-15T17:24:17.485Z,3.88
2019-03-15T17:26:51.457Z,3.85
2019-03-15T17:29:22.253Z,3.85
2019-03-15T17:31:54.015Z,3.85
2019-03-15T17:34:25.668Z,3.82
2019-03-15T17:37:06.677Z,3.84
2019-03-15T17:39:31.117Z,3.82
2019-03-15T17:42:03.408Z,3.82
2019-03-15T17:44:35.465Z,3.82
2019-03-15T17:47:07.003Z,3.82
2019-03-15T17:49:38.784Z,3.79
2019-03-15T17:52:10.373Z,3.79
2019-03-15T17:54:42.201Z,3.80
2019-03-15T17:57:13.867Z,3.78
2019-03-15T18:00:01.085Z,3.77
2019-03-15T18:02:33.178Z,3.73
2019-03-15T18:05:05.832Z,3.67
2019-03-15T18:07:37.289Z,3.68
2019-03-15T18:10:09.487Z,3.67
2019-03-15T18:12:41.019Z,3.66
2019-03-15T18:15:12.732Z,3.64
2019-03-15T18:17:44.534Z,3.58
2019-03-15T18:20:16.149Z,3.58
2019-03-15T18:22:48.874Z,3.53
2019-03-15T18:25:20.372Z,3.50
2019-03-15T18:27:52.065Z,3.48
2019-03-15T18:30:23.950Z,3.45
2019-03-15T18:32:55.501Z,3.44
2019-03-15T18:35:33.733Z,3.41
2019-03-15T18:38:01.018Z,3.39
2019-03-15T18:40:32.514Z,3.37
2019-03-15T18:43:04.399Z,3.39
2019-03-15T18:45:35.935Z,3.38
2019-03-15T18:48:07.582Z,3.38
2019-03-15T18:50:39.454Z,3.36
2019-03-15T18:53:12.237Z,3.34
2019-03-15T18:55:43.883Z,3.34
2019-03-15T18:58:15.557Z,3.29
2019-03-15T19:00:47.290Z,3.27
2019-03-15T19:03:18.764Z,3.27
2019-03-15T19:05:50.514Z,3.23
2019-03-15T19:08:23.202Z,3.22
2019-03-15T19:10:54.863Z,3.23
2019-03-15T19:13:26.310Z,3.22
2019-03-15T19:15:58.090Z,3.20
2019-03-15T19:18:29.529Z,3.17
2019-03-15T19:21:04.108Z,3.12
2019-03-15T19:23:41.539Z,3.08
2019-03-15T19:26:13.402Z,3.04
2019-03-15T19:28:45.061Z,3.05
2019-03-15T19:31:16.620Z,3.02
2019-03-15T19:33:48.050Z,2.99
2019-03-15T19:36:19.736Z,2.98
2019-03-15T19:38:51.712Z,2.96
2019-03-15T19:41:23.074Z,2.94
2019-03-15T19:43:55.019Z,2.92
2019-03-15T19:46:26.654Z,2.96
2019-03-15T19:48:58.192Z,2.92
2019-03-15T19:51:29.624Z,2.89
2019-03-15T19:54:01.420Z,2.86
2019-03-15T19:56:33.188Z,2.83
2019-03-15T19:59:04.839Z,2.79
2019-03-15T20:01:36.703Z,2.76
2019-03-15T20:04:08.381Z,2.70
2019-03-15T20:06:40.224Z,2.66
2019-03-15T20:09:11.965Z,2.63
2019-03-15T20:11:43.533Z,2.58
2019-03-15T20:14:15.229Z,2.55
2019-03-15T20:16:46.953Z,2.50
2019-03-15T20:19:18.406Z,2.46
2019-03-15T20:21:50.165Z,2.43
2019-03-15T20:24:21.820Z,2.40
2019-03-15T20:26:53.467Z,2.38
2019-03-15T20:29:25.240Z,2.36
2019-03-15T20:31:56.684Z,2.33
2019-03-15T20:34:28.325Z,2.29
2019-03-15T20:36:59.900Z,2.23
2019-03-15T20:39:31.887Z,2.14
2019-03-15T20:42:03.319Z,2.08
2019-03-15T20:44:35.206Z,2.03
2019-03-15T20:47:07.070Z,2.02
2019-03-15T20:49:38.494Z,2.01
2019-03-15T20:52:10.147Z,1.98
2019-03-15T20:54:41.992Z,1.97
2019-03-15T20:57:13.573Z,1.96
2019-03-15T20:59:45.217Z,1.96
2019-03-15T21:02:16.856Z,1.98
2019-03-15T21:04:49.457Z,2.00
2019-03-15T21:07:21.092Z,2.00
2019-03-15T21:09:52.769Z,2.05
2019-03-15T21:12:24.425Z,2.02
2019-03-15T21:14:56.180Z,1.97
2019-03-15T21:17:27.735Z,1.93
2019-03-15T21:19:59.626Z,1.92
2019-03-15T21:22:32.679Z,1.90
2019-03-15T21:25:04.658Z,1.91
2019-03-15T21:27:37.895Z,1.93
2019-03-15T21:30:20.558Z,1.93
2019-03-15T21:32:52.118Z,1.95
2019-03-15T21:35:23.576Z,1.95
2019-03-15T21:37:55.211Z,1.93
2019-03-15T21:40:26.933Z,1.91
2019-03-15T21:42:58.514Z,1.87
2019-03-15T21:45:30.287Z,1.85
2019-03-15T21:48:01.947Z,1.81
2019-03-15T21:50:33.706Z,1.78
2019-03-15T21:53:05.314Z,1.78
2019-03-15T21:55:37.016Z,1.76
2019-03-15T21:58:08.699Z,1.77
2019-03-15T22:00:40.353Z,1.72
2019-03-15T22:03:11.910Z,1.70
2019-03-15T22:05:43.360Z,1.70
2019-03-15T22:08:15.018Z,1.70
2019-03-15T22:10:48.220Z,1.69
2019-03-15T22:13:19.665Z,1.69
2019-03-15T22:15:52.084Z,1.70
2019-03-15T22:18:23.595Z,1.71
2019-03-15T22:20:55.352Z,1.70
2019-03-15T22:23:28.192Z,1.68
2019-03-15T22:26:00.009Z,1.63
2019-03-15T22:28:34.214Z,1.60
2019-03-15T22:31:16.649Z,1.58
2019-03-15T22:33:39.866Z,1.59
2019-03-15T22:36:11.420Z,1.59
2019-03-15T22:38:43.400Z,1.57
2019-03-15T22:41:14.954Z,1.56
2019-03-15T22:43:46.921Z,1.52
2019-03-15T22:46:18.378Z,1.48
2019-03-15T22:48:50.132Z,1.44
2019-03-15T22:51:21.895Z,1.36
2019-03-15T22:53:53.546Z,1.27
2019-03-15T22:56:24.896Z,1.17
2019-03-15T22:58:56.692Z,1.08
2019-03-15T23:01:30.481Z,0.98
2019-03-15T23:04:01.600Z,0.87
2019-03-15T23:06:34.519Z,0.74
2019-03-15T23:09:07.560Z,0.62
2019-03-15T23:11:40.085Z,0.53
2019-03-15T23:14:11.720Z,0.45
2019-03-15T23:16:43.273Z,0.39
2019-03-15T23:19:14.826Z,0.28
2019-03-15T23:21:47.409Z,0.19
2019-03-15T23:24:19.044Z,0.13
2019-03-15T23:26:50.735Z,0.08
2019-03-15T23:29:22.362Z,0.04
2019-03-15T23:31:55.359Z,0.02
2019-03-15T23:34:26.917Z,-0.02
2019-03-15T23:36:58.563Z,0.01
2019-03-15T23:39:30.250Z,0.04
2019-03-15T23:42:01.767Z,0.09
2019-03-15T23:44:33.718Z,0.17
2019-03-15T23:47:05.153Z,0.23
2019-03-15T23:49:36.660Z,0.23
2019-03-15T23:52:08.428Z,0.24
2019-03-15T23:54:40.262Z,0.27
2019-03-15T23:57:11.832Z,0.36
2019-03-15T23:59:43.588Z,0.43
